createdAt,value
2019-06-08T00:01:50.835Z,17.70
2019-06-08T00:04:22.744Z,17.90
2019-06-08T00:06:51.241Z,17.80
2019-06-08T00:09:20.815Z,17.70
2019-06-08T00:11:49.955Z,17.50
2019-06-08T00:14:28.795Z,17.30
2019-06-08T00:17:00.157Z,17.30
2019-06-08T00:19:36.621Z,17.40
2019-06-08T00:25:35.335Z,17.30
2019-06-08T00:28:14.154Z,17.40
2019-06-08T00:30:54.401Z,17.50
2019-06-08T00:33:56.524Z,17.50
2019-06-08T00:36:29.470Z,17.70
2019-06-08T00:39:11.990Z,17.70
2019-06-08T00:41:56.301Z,17.70
2019-06-08T00:44:38.888Z,17.90
2019-06-08T00:47:12.897Z,17.80
2019-06-08T00:49:49.824Z,17.60
2019-06-08T00:52:23.130Z,17.70
2019-06-08T00:54:53.725Z,17.80
2019-06-08T00:57:30.206Z,17.70
2019-06-08T00:59:58.630Z,17.70
2019-06-08T01:02:29.121Z,17.60
2019-06-08T01:04:57.315Z,17.60
2019-06-08T01:07:28.611Z,17.70
2019-06-08T01:09:58.507Z,17.70
2019-06-08T01:12:29.784Z,17.80
2019-06-08T01:14:58.720Z,18.00
2019-06-08T01:17:27.494Z,18.20
2019-06-08T01:19:59.252Z,18.30
2019-06-08T01:22:30.910Z,18.20
2019-06-08T01:24:59.024Z,18.20
2019-06-08T01:27:30.191Z,18.10
2019-06-08T01:29:58.374Z,18.00
2019-06-08T01:32:26.614Z,18.00
2019-06-08T01:34:56.787Z,17.70
2019-06-08T01:37:27.312Z,17.60
2019-06-08T01:40:11.425Z,17.40
2019-06-08T01:42:39.935Z,17.40
2019-06-08T01:45:38.264Z,17.40
2019-06-08T01:48:20.145Z,17.40
2019-06-08T01:50:47.443Z,17.50
2019-06-08T01:53:24.650Z,17.40
2019-06-08T01:55:57.054Z,17.30
2019-06-08T01:58:27.455Z,17.10
2019-06-08T02:00:58.271Z,17.20
2019-06-08T02:03:26.514Z,17.30
2019-06-08T02:05:56.349Z,17.20
2019-06-08T02:08:24.643Z,17.20
2019-06-08T02:10:57.855Z,17.20
2019-06-08T02:13:26.873Z,17.20
2019-06-08T02:15:54.940Z,17.30
2019-06-08T02:18:36.707Z,17.30
2019-06-08T02:20:53.391Z,17.30
2019-06-08T02:23:24.466Z,17.20
2019-06-08T02:25:52.949Z,17.10
2019-06-08T02:28:21.738Z,17.00
2019-06-08T02:30:57.266Z,16.80
2019-06-08T02:33:30.382Z,16.80
2019-06-08T02:36:13.923Z,16.90
2019-06-08T02:38:47.245Z,17.00
2019-06-08T02:41:21.361Z,17.20
2019-06-08T02:43:50.319Z,17.20
2019-06-08T02:46:22.800Z,17.20
2019-06-08T02:49:03.246Z,17.20
2019-06-08T02:51:28.727Z,17.10
2019-06-08T02:54:16.249Z,17.00
2019-06-08T02:57:17.862Z,16.90
2019-06-08T03:00:02.133Z,17.00
2019-06-08T03:02:40.596Z,17.10
2019-06-08T03:05:17.344Z,17.10
2019-06-08T03:07:55.639Z,17.20
2019-06-08T03:10:39.239Z,17.20
2019-06-08T03:13:13.289Z,17.00
2019-06-08T03:15:49.537Z,16.90
2019-06-08T03:18:20.564Z,16.90
2019-06-08T03:20:49.697Z,16.90
2019-06-08T03:23:18.435Z,17.00
2019-06-08T03:25:52.898Z,17.00
2019-06-08T03:28:21.262Z,16.90
2019-06-08T03:30:54.240Z,16.90
2019-06-08T03:33:24.570Z,16.70
2019-06-08T03:35:57.917Z,16.60
2019-06-08T03:38:23.069Z,16.60
2019-06-08T03:40:58.530Z,16.60
2019-06-08T03:43:24.425Z,16.60
2019-06-08T03:45:52.525Z,16.70
2019-06-08T03:48:21.254Z,16.60
2019-06-08T03:50:49.603Z,16.60
2019-06-08T03:53:17.975Z,16.60
2019-06-08T03:55:47.247Z,16.60
2019-06-08T03:58:15.337Z,16.50
2019-06-08T04:00:44.398Z,16.60
2019-06-08T04:03:13.162Z,16.70
2019-06-08T04:05:44.915Z,16.60
2019-06-08T04:08:17.729Z,16.50
2019-06-08T04:10:46.777Z,16.60
2019-06-08T04:13:21.226Z,16.50
2019-06-08T04:15:51.574Z,16.50
2019-06-08T04:18:22.310Z,16.40
2019-06-08T04:20:51.539Z,16.50
2019-06-08T04:23:25.110Z,16.40
2019-06-08T04:25:55.853Z,16.40
2019-06-08T04:28:26.793Z,16.30
2019-06-08T04:30:58.846Z,16.30
2019-06-08T04:33:46.327Z,16.20
2019-06-08T04:36:15.893Z,16.20
2019-06-08T04:39:04.000Z,16.30
2019-06-08T04:41:51.398Z,16.50
2019-06-08T04:44:27.016Z,16.60
2019-06-08T04:46:58.048Z,16.50
2019-06-08T04:49:29.799Z,16.40
2019-06-08T04:52:06.390Z,16.40
2019-06-08T04:54:49.662Z,16.40
2019-06-08T04:57:22.304Z,16.50
2019-06-08T04:59:56.421Z,16.50
2019-06-08T05:02:30.578Z,16.40
2019-06-08T05:05:08.772Z,16.40
2019-06-08T05:07:41.480Z,16.40
2019-06-08T05:10:36.651Z,16.40
2019-06-08T05:36:59.452Z,16.40
2019-06-08T05:39:58.304Z,16.40
2019-06-08T05:44:11.064Z,16.40
2019-06-08T05:45:08.305Z,16.40
2019-06-08T05:51:47.891Z,16.50
2019-06-08T06:06:44.582Z,16.80
2019-06-08T06:23:31.201Z,16.80
2019-06-08T06:26:08.010Z,16.80
2019-06-08T06:31:47.735Z,16.70
2019-06-08T06:34:33.458Z,16.80
2019-06-08T06:40:17.336Z,16.80
2019-06-08T06:46:44.249Z,16.70
2019-06-08T06:49:14.620Z,16.60
2019-06-08T06:51:42.686Z,16.70
2019-06-08T06:54:14.118Z,16.60
2019-06-08T06:56:45.265Z,16.60
2019-06-08T06:59:19.617Z,16.70
2019-06-08T07:01:47.604Z,16.90
2019-06-08T07:04:16.755Z,17.20
2019-06-08T07:06:46.107Z,17.50
2019-06-08T07:09:14.269Z,17.70
2019-06-08T07:11:42.788Z,18.00
2019-06-08T07:14:10.503Z,18.10
2019-06-08T07:16:38.319Z,18.10
2019-06-08T07:19:06.066Z,18.30
2019-06-08T07:21:41.867Z,18.50
2019-06-08T07:24:03.473Z,18.60
2019-06-08T07:26:34.683Z,18.70
2019-06-08T07:29:02.787Z,18.80
2019-06-08T07:31:31.938Z,18.80
2019-06-08T07:34:00.167Z,18.90
2019-06-08T07:36:28.108Z,19.00
2019-06-08T07:38:55.794Z,19.00
2019-06-08T07:48:12.460Z,19.10
2019-06-08T07:51:11.053Z,19.00
2019-06-08T07:53:53.984Z,19.00
2019-06-08T07:56:41.876Z,19.00
2019-06-08T07:59:26.095Z,19.10
2019-06-08T08:01:59.349Z,19.20
2019-06-08T08:04:30.323Z,19.40
2019-06-08T08:07:05.170Z,19.60
2019-06-08T08:09:38.713Z,19.50
2019-06-08T08:15:03.053Z,19.60
2019-06-08T08:17:34.274Z,19.50
2019-06-08T08:20:04.280Z,19.80
2019-06-08T08:22:43.616Z,19.80
2019-06-08T08:25:23.892Z,19.90
2019-06-08T08:28:00.696Z,19.80
2019-06-08T08:30:34.022Z,19.90
2019-06-08T08:36:07.297Z,20.30
2019-06-08T08:38:38.057Z,20.20
2019-06-08T08:41:10.760Z,20.10
2019-06-08T08:44:00.846Z,20.40
2019-06-08T08:46:40.577Z,20.40
2019-06-08T08:49:19.947Z,20.30
2019-06-08T08:52:00.063Z,20.30
2019-06-08T08:54:31.626Z,20.40
2019-06-08T08:57:05.125Z,20.60
2019-06-08T08:59:39.586Z,21.00
2019-06-08T09:02:11.447Z,21.10
2019-06-08T09:05:02.006Z,21.10
2019-06-08T09:07:58.744Z,21.00
2019-06-08T09:10:51.786Z,21.00
2019-06-08T09:13:27.884Z,20.90
2019-06-08T09:16:04.363Z,20.80
2019-06-08T09:18:38.826Z,20.80
2019-06-08T09:21:18.611Z,20.80
2019-06-08T09:24:00.675Z,21.00
2019-06-08T09:26:39.314Z,21.20
2019-06-08T09:29:28.869Z,21.30
2019-06-08T09:32:21.749Z,21.40
2019-06-08T09:35:09.294Z,21.40
2019-06-08T09:38:03.217Z,21.50
2019-06-08T09:40:32.597Z,21.70
2019-06-08T09:43:13.076Z,21.90
2019-06-08T09:45:55.340Z,22.00
2019-06-08T09:48:38.653Z,22.30
2019-06-08T09:51:18.719Z,22.50
2019-06-08T09:54:18.641Z,22.30
2019-06-08T09:57:02.123Z,22.30
2019-06-08T09:59:34.855Z,22.30
2019-06-08T10:02:12.239Z,22.30
2019-06-08T10:04:40.462Z,22.20
2019-06-08T10:07:10.425Z,22.20
2019-06-08T10:09:43.486Z,22.30
2019-06-08T10:12:48.416Z,22.20
2019-06-08T10:15:21.524Z,21.90
2019-06-08T10:18:11.513Z,22.10
2019-06-08T10:20:51.730Z,22.20
2019-06-08T10:23:30.818Z,22.40
2019-06-08T10:25:52.662Z,22.50
2019-06-08T10:28:21.887Z,22.50
2019-06-08T10:30:57.758Z,22.70
2019-06-08T10:33:30.359Z,22.50
2019-06-08T10:36:12.900Z,22.50
2019-06-08T10:38:44.525Z,22.40
2019-06-08T10:41:21.412Z,22.40
2019-06-08T10:43:44.932Z,22.30
2019-06-08T10:46:19.882Z,22.10
2019-06-08T10:48:48.429Z,22.10
2019-06-08T10:51:40.159Z,22.20
2019-06-08T10:54:09.392Z,22.40
2019-06-08T10:56:53.871Z,22.50
2019-06-08T10:59:48.686Z,22.50
2019-06-08T11:02:19.366Z,22.50
2019-06-08T11:04:48.373Z,22.40
2019-06-08T11:07:18.308Z,22.40
2019-06-08T11:09:55.181Z,22.60
2019-06-08T11:12:49.174Z,22.80
2019-06-08T11:15:19.245Z,22.90
2019-06-08T11:17:50.554Z,23.00
2019-06-08T11:20:21.252Z,23.00
2019-06-08T11:22:50.119Z,23.10
2019-06-08T11:25:22.676Z,23.10
2019-06-08T11:27:50.731Z,23.10
2019-06-08T11:30:26.750Z,22.80
2019-06-08T11:33:02.081Z,22.80
2019-06-08T11:35:32.151Z,23.00
2019-06-08T11:38:10.712Z,23.10
2019-06-08T11:40:40.073Z,23.10
2019-06-08T11:43:08.614Z,23.20
2019-06-08T11:45:39.990Z,23.30
2019-06-08T11:48:28.614Z,23.40
2019-06-08T11:51:02.505Z,23.40
2019-06-08T11:53:39.582Z,23.20
2019-06-08T11:56:24.331Z,22.90
2019-06-08T11:58:54.210Z,22.90
2019-06-08T12:01:28.364Z,22.90
2019-06-08T12:04:28.211Z,23.00
2019-06-08T12:06:55.493Z,23.00
2019-06-08T12:09:32.989Z,22.70
2019-06-08T12:12:17.219Z,22.80
2019-06-08T12:14:40.574Z,23.10
2019-06-08T12:17:16.828Z,23.20
2019-06-08T12:19:47.489Z,23.40
2019-06-08T12:22:17.958Z,23.50
2019-06-08T12:24:59.122Z,23.50
2019-06-08T12:27:33.657Z,23.50
2019-06-08T12:30:08.142Z,23.60
2019-06-08T12:32:39.846Z,23.60
2019-06-08T12:35:15.409Z,23.60
2019-06-08T12:37:58.136Z,23.60
2019-06-08T12:40:52.552Z,23.60
2019-06-08T12:43:23.046Z,23.60
2019-06-08T12:46:02.726Z,23.50
2019-06-08T12:48:35.696Z,23.50
2019-06-08T12:55:24.703Z,23.50
2019-06-08T12:57:55.037Z,23.70
2019-06-08T13:00:44.871Z,23.80
2019-06-08T13:03:19.578Z,23.80
2019-06-08T13:05:57.549Z,23.80
2019-06-08T13:08:41.340Z,23.80
2019-06-08T13:11:37.141Z,23.80
2019-06-08T13:14:41.652Z,23.90
2019-06-08T13:29:09.232Z,24.30
2019-06-08T13:31:55.364Z,24.30
2019-06-08T14:02:15.512Z,24.00
2019-06-08T14:04:59.228Z,23.90
2019-06-08T14:07:34.549Z,23.90
2019-06-08T14:13:10.189Z,24.10
2019-06-08T14:15:45.645Z,24.10
2019-06-08T14:18:17.903Z,24.20
2019-06-08T14:20:44.517Z,24.20
2019-06-08T14:23:12.369Z,24.10
2019-06-08T14:25:49.958Z,24.10
2019-06-08T14:28:09.624Z,24.00
2019-06-08T14:30:37.873Z,24.00
2019-06-08T14:33:08.403Z,24.00
2019-06-08T14:35:36.291Z,24.00
2019-06-08T14:38:03.980Z,24.00
2019-06-08T14:40:33.177Z,24.10
2019-06-08T14:43:00.943Z,24.10
2019-06-08T14:45:30.870Z,24.10
2019-06-08T14:47:58.736Z,24.20
2019-06-08T14:50:29.312Z,24.20
2019-06-08T14:52:58.797Z,24.20
2019-06-08T14:55:31.634Z,24.20
2019-06-08T14:57:57.857Z,24.20
2019-06-08T15:00:25.665Z,24.20
2019-06-08T15:02:53.381Z,24.20
2019-06-08T15:05:21.537Z,24.20
2019-06-08T15:07:49.213Z,24.30
2019-06-08T15:10:21.766Z,24.30
2019-06-08T15:12:49.755Z,24.20
2019-06-08T15:15:18.454Z,24.10
2019-06-08T15:17:47.756Z,24.20
2019-06-08T15:20:17.659Z,24.20
2019-06-08T15:22:45.315Z,24.30
2019-06-08T15:25:13.148Z,24.20
2019-06-08T15:27:41.114Z,24.20
2019-06-08T15:30:09.005Z,24.30
2019-06-08T15:32:39.739Z,24.40
2019-06-08T15:35:08.049Z,24.30
2019-06-08T15:37:38.100Z,24.20
2019-06-08T15:40:08.867Z,24.20
2019-06-08T15:42:42.743Z,24.30
2019-06-08T15:45:13.655Z,24.40
2019-06-08T15:47:41.617Z,24.40
2019-06-08T15:50:09.395Z,24.40
2019-06-08T15:52:37.826Z,24.30
2019-06-08T15:55:10.898Z,24.30
2019-06-08T15:57:37.981Z,24.20
2019-06-08T16:00:09.637Z,24.30
2019-06-08T16:02:35.472Z,24.20
2019-06-08T16:05:03.780Z,24.20
2019-06-08T16:07:32.847Z,24.20
2019-06-08T16:10:01.188Z,24.10
2019-06-08T16:12:29.389Z,24.20
2019-06-08T16:14:58.905Z,24.20
2019-06-08T16:17:27.138Z,24.10
2019-06-08T16:19:55.309Z,24.00
2019-06-08T16:22:23.019Z,24.10
2019-06-08T16:24:50.918Z,24.20
2019-06-08T16:27:18.723Z,24.20
2019-06-08T16:29:46.454Z,24.10
2019-06-08T16:32:14.260Z,24.10
2019-06-08T16:34:42.008Z,24.10
2019-06-08T16:37:09.886Z,24.10
2019-06-08T16:39:37.624Z,24.10
2019-06-08T16:42:05.153Z,24.10
2019-06-08T16:44:34.167Z,24.10
2019-06-08T16:47:01.960Z,24.00
2019-06-08T16:49:29.794Z,24.00
2019-06-08T16:52:09.349Z,24.10
2019-06-08T16:54:37.478Z,24.00
2019-06-08T16:57:10.189Z,24.10
2019-06-08T16:59:34.846Z,24.10
2019-06-08T17:02:02.570Z,24.00
2019-06-08T17:04:31.179Z,24.10
2019-06-08T17:07:00.492Z,24.00
2019-06-08T17:09:29.595Z,24.00
2019-06-08T17:11:57.362Z,24.00
2019-06-08T17:14:25.331Z,24.00
2019-06-08T17:16:53.134Z,24.00
2019-06-08T17:19:21.000Z,24.00
2019-06-08T17:21:49.323Z,23.90
2019-06-08T17:24:17.244Z,23.90
2019-06-08T17:26:45.191Z,23.90
2019-06-08T17:29:12.906Z,23.80
2019-06-08T17:31:41.402Z,23.80
2019-06-08T17:34:08.997Z,23.80
2019-06-08T17:36:36.830Z,23.80
2019-06-08T17:39:05.953Z,23.80
2019-06-08T17:41:34.006Z,23.80
2019-06-08T17:44:01.761Z,23.80
2019-06-08T17:46:29.460Z,23.80
2019-06-08T17:48:57.164Z,23.80
2019-06-08T17:51:24.755Z,23.80
2019-06-08T17:53:52.444Z,23.80
2019-06-08T17:56:20.105Z,23.80
2019-06-08T17:58:47.843Z,23.80
2019-06-08T18:01:15.647Z,23.70
2019-06-08T18:03:44.721Z,23.40
2019-06-08T18:06:17.944Z,23.00
2019-06-08T18:08:48.030Z,22.80
2019-06-08T18:11:17.220Z,22.70
2019-06-08T18:13:47.793Z,22.40
2019-06-08T18:16:17.532Z,22.30
2019-06-08T18:18:45.358Z,22.30
2019-06-08T18:21:13.282Z,22.10
2019-06-08T18:23:42.662Z,22.10
2019-06-08T18:26:10.800Z,22.20
2019-06-08T18:28:39.562Z,22.20
2019-06-08T18:31:08.012Z,22.30
2019-06-08T18:33:39.309Z,22.10
2019-06-08T18:36:07.499Z,21.90
2019-06-08T18:38:34.918Z,22.00
2019-06-08T18:41:02.601Z,21.90
2019-06-08T18:43:31.326Z,21.90
2019-06-08T18:45:59.079Z,22.00
2019-06-08T18:48:38.513Z,21.90
2019-06-08T18:51:08.078Z,22.00
2019-06-08T18:53:49.269Z,22.00
2019-06-08T18:56:05.083Z,22.00
2019-06-08T18:58:32.767Z,22.00
2019-06-08T19:01:00.789Z,21.90
2019-06-08T19:03:28.669Z,21.90
2019-06-08T19:05:56.749Z,21.90
2019-06-08T19:08:24.626Z,21.50
2019-06-08T19:10:52.289Z,21.40
2019-06-08T19:13:20.022Z,21.50
2019-06-08T19:15:52.533Z,21.50
2019-06-08T19:18:17.872Z,21.30
2019-06-08T19:20:47.734Z,21.30
2019-06-08T19:23:15.161Z,21.50
2019-06-08T19:25:45.865Z,21.60
2019-06-08T19:28:12.452Z,21.60
2019-06-08T19:30:42.436Z,21.70
2019-06-08T19:33:12.137Z,21.70
2019-06-08T19:35:40.753Z,21.70
2019-06-08T19:38:09.321Z,21.80
2019-06-08T19:40:38.811Z,21.60
2019-06-08T19:43:07.534Z,21.50
2019-06-08T19:45:35.509Z,21.40
2019-06-08T19:48:03.143Z,21.30
2019-06-08T19:50:31.259Z,21.30
2019-06-08T19:52:59.443Z,21.20
2019-06-08T19:55:27.195Z,21.10
2019-06-08T19:57:57.029Z,21.00
2019-06-08T20:00:24.410Z,20.90
2019-06-08T20:02:55.050Z,20.80
2019-06-08T20:05:22.222Z,20.70
2019-06-08T20:07:50.302Z,20.70
2019-06-08T20:10:18.203Z,20.70
2019-06-08T20:12:47.957Z,20.60
2019-06-08T20:15:17.898Z,20.50
2019-06-08T20:17:48.176Z,20.40
2019-06-08T20:20:18.325Z,20.40
2019-06-08T20:22:48.311Z,20.40
2019-06-08T20:25:17.809Z,20.40
2019-06-08T20:27:48.403Z,20.50
2019-06-08T20:30:17.395Z,20.40
2019-06-08T20:32:45.005Z,20.30
2019-06-08T20:35:14.539Z,20.20
2019-06-08T20:37:43.559Z,20.10
2019-06-08T20:40:14.300Z,20.10
2019-06-08T20:42:42.233Z,20.00
2019-06-08T20:45:10.294Z,20.00
2019-06-08T20:47:39.080Z,20.00
2019-06-08T20:50:07.786Z,20.00
2019-06-08T20:52:37.594Z,19.80
2019-06-08T20:55:07.769Z,19.70
2019-06-08T20:57:36.590Z,19.40
2019-06-08T21:00:09.166Z,19.20
2019-06-08T21:02:37.187Z,19.20
2019-06-08T21:05:07.651Z,19.00
2019-06-08T21:07:34.619Z,19.00
2019-06-08T21:10:02.441Z,19.00
2019-06-08T21:12:30.162Z,18.90
2019-06-08T21:14:58.003Z,18.70
2019-06-08T21:17:27.547Z,18.50
2019-06-08T21:19:57.731Z,18.30
2019-06-08T21:22:27.772Z,18.00
2019-06-08T21:24:59.746Z,17.90
2019-06-08T21:27:24.974Z,17.80
2019-06-08T21:29:59.752Z,17.70
2019-06-08T21:32:22.112Z,17.70
2019-06-08T21:34:52.084Z,17.70
2019-06-08T21:37:19.885Z,17.80
2019-06-08T21:39:50.504Z,17.80
2019-06-08T21:42:17.465Z,17.80
2019-06-08T21:44:47.656Z,17.70
2019-06-08T21:47:15.255Z,17.70
2019-06-08T21:49:43.328Z,17.70
2019-06-08T21:52:13.501Z,17.70
2019-06-08T21:54:41.589Z,17.60
2019-06-08T21:57:09.778Z,17.40
2019-06-08T21:59:37.874Z,17.40
2019-06-08T22:02:08.169Z,17.50
2019-06-08T22:04:39.176Z,17.40
2019-06-08T22:07:07.195Z,17.40
2019-06-08T22:09:37.282Z,17.30
2019-06-08T22:12:07.001Z,17.30
2019-06-08T22:14:34.765Z,17.30
2019-06-08T22:17:03.287Z,17.20
2019-06-08T22:19:31.778Z,17.00
2019-06-08T22:22:21.671Z,16.90
2019-06-08T22:24:51.825Z,16.80
2019-06-08T22:27:20.317Z,16.70
2019-06-08T22:29:49.166Z,16.60
2019-06-08T22:32:17.909Z,16.50
2019-06-08T22:34:47.649Z,16.50
2019-06-08T22:37:17.487Z,16.40
2019-06-08T22:39:47.488Z,16.40
2019-06-08T22:42:14.876Z,16.40
2019-06-08T22:44:42.817Z,16.40
2019-06-08T22:47:10.606Z,16.40
2019-06-08T22:49:38.613Z,16.40
2019-06-08T22:52:08.200Z,16.40
2019-06-08T22:54:38.300Z,16.40
2019-06-08T22:57:08.639Z,16.30
2019-06-08T22:59:37.174Z,16.30
2019-06-08T23:02:06.412Z,16.40
2019-06-08T23:04:34.771Z,16.20
2019-06-08T23:07:04.524Z,16.20
2019-06-08T23:09:32.510Z,16.10
2019-06-08T23:12:03.070Z,16.10
2019-06-08T23:14:30.511Z,16.10
2019-06-08T23:17:01.221Z,16.10
2019-06-08T23:19:28.440Z,16.30
2019-06-08T23:21:59.590Z,16.60
2019-06-08T23:24:27.523Z,16.90
2019-06-08T23:26:55.952Z,17.00
2019-06-08T23:29:27.335Z,17.10
2019-06-08T23:31:57.197Z,17.20
2019-06-08T23:34:27.538Z,17.20
2019-06-08T23:37:00.921Z,17.20
2019-06-08T23:39:28.436Z,17.30
2019-06-08T23:41:57.601Z,17.40
2019-06-08T23:44:25.542Z,17.50
2019-06-08T23:46:53.456Z,17.70
2019-06-08T23:49:21.632Z,17.70
2019-06-08T23:51:49.589Z,17.90
2019-06-08T23:54:18.432Z,17.90
2019-06-08T23:56:47.710Z,17.90
2019-06-08T23:59:17.762Z,17.90
